»·PEaware :: N1JG KPHX-KSNA

N1JG :: KPHX-KSNA

FLIGHT INFORMATION

Flight Status: Arrived
Operator: Privately registered:
United States
More flights under this callsign
Pilot: Josh G. (4619)
Aircraft: Unknown
(TBM9)
More flights by this aircraft type
Origin: KPHX Phoenix Sky Harbor Intl
United States
Destination: KSNA John Wayne-Orange Co
United States
More flights between these airports :: More routes between these airports
Route: +IZZZO6 HRRBR EMLLD DSNEE3
File this flight plan on PilotEdge
Remarks: STREAM
Altitude:
(Current/Filed)
30,000ft
Speed:
(Current/Filed)
300kts
Departed: 22-Apr-18 06:33 PM
Arrived: 22-Apr-18 07:56 PM
Distance/Time
Traveled:
293nm/1:23
Distance/Time
To Go:
Arrived

Flight Plot

Page will automatically refresh every two minutes.

Flight plan parsing failed; only flown route is shown


Map Options




Map Legend


Flown Route
Filed Route
Departure Airport
Arrival Airport
Navaid (VOR, NDB)
Fix

Horizontal Profiles

Position Reports

Time Latitude Longitude Heading Altitude Ground
Speed
22-Apr-18 18:09 33.425770 -112.019526 270 1112ft 0kts
22-Apr-18 18:10 33.425770 -112.019526 270 1112ft 0kts
22-Apr-18 18:11 33.425770 -112.019526 270 1112ft 0kts
22-Apr-18 18:12 33.425770 -112.019526 270 1112ft 0kts
22-Apr-18 18:13 33.425770 -112.019526 270 1112ft 0kts
22-Apr-18 18:14 33.425770 -112.019526 270 1112ft 0kts
22-Apr-18 18:15 33.425770 -112.019526 270 1112ft 0kts
22-Apr-18 18:16 33.425770 -112.019526 270 1112ft 0kts
22-Apr-18 18:17 33.425770 -112.019526 270 1112ft 0kts
22-Apr-18 18:18 33.425770 -112.019526 270 1112ft 0kts
22-Apr-18 18:19 33.425770 -112.019526 270 1112ft 0kts
22-Apr-18 18:20 33.425770 -112.019526 270 1112ft 0kts
22-Apr-18 18:21 33.425770 -112.019526 270 1112ft 0kts
22-Apr-18 18:22 33.425770 -112.019526 270 1112ft 0kts
22-Apr-18 18:23 33.425770 -112.019526 270 1112ft 0kts
22-Apr-18 18:24 33.425770 -112.019526 270 1112ft 0kts
22-Apr-18 18:25 33.425768 -112.019632 271 1112ft 5kts
22-Apr-18 18:26 33.427377 -112.021031 350 1112ft 10kts
22-Apr-18 18:27 33.427750 -112.016051 91 1112ft 22kts
22-Apr-18 18:28 33.427751 -112.009537 88 1112ft 14kts
22-Apr-18 18:29 33.427998 -112.005299 18 1112ft 0kts
22-Apr-18 18:30 33.427998 -112.005299 17 1112ft 0kts
22-Apr-18 18:31 33.428825 -112.005529 288 1112ft 9kts
22-Apr-18 18:32 33.428905 -112.040429 271 1714ft 159kts
22-Apr-18 18:33 33.431023 -112.094020 272 3665ft 164kts
22-Apr-18 18:34 33.433190 -112.148628 272 5600ft 167kts
22-Apr-18 18:35 33.435379 -112.204645 272 7403ft 172kts
22-Apr-18 18:36 33.437622 -112.262037 271 9218ft 174kts
22-Apr-18 18:37 33.439758 -112.318833 272 11046ft 173kts
22-Apr-18 18:38 33.441802 -112.372941 272 12563ft 177kts
22-Apr-18 18:39 33.443969 -112.431206 272 14147ft 182kts
22-Apr-18 18:40 33.446167 -112.490834 272 15803ft 184kts
22-Apr-18 18:41 33.448373 -112.551890 274 17329ft 187kts
22-Apr-18 18:42 33.450310 -112.614595 273 18808ft 190kts
22-Apr-18 18:43 33.451175 -112.676564 272 20120ft 192kts
22-Apr-18 18:44 33.452022 -112.740833 272 21609ft 197kts
22-Apr-18 18:45 33.454221 -112.806049 282 23153ft 198kts
22-Apr-18 18:46 33.466096 -112.870913 282 24524ft 202kts
22-Apr-18 18:47 33.478436 -112.937003 283 25757ft 205kts
22-Apr-18 18:48 33.491148 -113.005172 282 26972ft 210kts
22-Apr-18 18:49 33.503851 -113.073512 282 28374ft 213kts
22-Apr-18 18:50 33.516762 -113.143198 282 29591ft 217kts
22-Apr-18 18:51 33.530649 -113.218384 282 29902ft 250kts
22-Apr-18 18:52 33.546403 -113.303972 282 29892ft 273kts
22-Apr-18 18:53 33.563059 -113.394931 282 29887ft 284kts
22-Apr-18 18:54 33.580055 -113.488143 282 29884ft 289kts
22-Apr-18 18:55 33.597550 -113.582369 282 29883ft 291kts
22-Apr-18 18:56 33.614669 -113.674350 282 29888ft 292kts
22-Apr-18 18:57 33.632171 -113.768764 282 29888ft 293kts
22-Apr-18 18:58 33.650325 -113.864211 289 29828ft 295kts
22-Apr-18 18:59 33.684069 -113.953568 293 29832ft 294kts
22-Apr-18 19:00 33.718116 -114.042078 293 29832ft 294kts
22-Apr-18 19:01 33.752342 -114.131149 294 29831ft 294kts
22-Apr-18 19:02 33.767533 -114.226835 278 29829ft 293kts
22-Apr-18 19:03 33.778832 -114.323537 278 29830ft 293kts
22-Apr-18 19:04 33.790079 -114.420437 278 29829ft 293kts
22-Apr-18 19:05 33.801265 -114.517473 278 29829ft 293kts
22-Apr-18 19:06 33.811311 -114.605120 278 29831ft 293kts
22-Apr-18 19:07 33.821707 -114.696607 277 29833ft 290kts
22-Apr-18 19:08 33.832345 -114.790732 278 29831ft 289kts
22-Apr-18 19:09 33.843017 -114.885883 277 29832ft 289kts
22-Apr-18 19:10 33.853656 -114.981128 278 29831ft 288kts
22-Apr-18 19:11 33.864117 -115.075337 278 29777ft 289kts
22-Apr-18 19:12 33.874694 -115.171292 278 29776ft 289kts
22-Apr-18 19:13 33.885136 -115.266716 278 29775ft 288kts
22-Apr-18 19:14 33.895484 -115.361938 278 29776ft 288kts
22-Apr-18 19:15 33.905714 -115.456836 278 29775ft 288kts
22-Apr-18 19:16 33.915910 -115.552096 278 29773ft 288kts
22-Apr-18 19:17 33.925899 -115.647232 276 29916ft 283kts
22-Apr-18 19:18 33.932249 -115.734289 275 29969ft 285kts
22-Apr-18 19:19 33.938872 -115.827434 275 29967ft 287kts
22-Apr-18 19:20 33.945830 -115.926370 275 29384ft 302kts
22-Apr-18 19:21 33.952874 -116.027786 275 28843ft 308kts
22-Apr-18 19:22 33.960013 -116.131825 275 27782ft 322kts
22-Apr-18 19:23 33.960560 -116.238198 263 26326ft 331kts
22-Apr-18 19:24 33.946916 -116.347687 263 24816ft 330kts
22-Apr-18 19:25 33.933496 -116.456354 263 23304ft 327kts
22-Apr-18 19:26 33.920130 -116.563187 263 21798ft 325kts
22-Apr-18 19:27 33.906594 -116.668212 263 20301ft 322kts
22-Apr-18 19:28 33.893522 -116.771835 264 18828ft 318kts
22-Apr-18 19:29 33.882049 -116.876734 264 17037ft 316kts
22-Apr-18 19:30 33.870688 -116.980184 264 15273ft 314kts
22-Apr-18 19:31 33.859598 -117.081404 264 13689ft 301kts
22-Apr-18 19:32 33.807520 -117.155061 220 11707ft 298kts
22-Apr-18 19:33 33.744611 -117.216289 220 9548ft 290kts
22-Apr-18 19:34 33.686888 -117.274875 220 7956ft 234kts
22-Apr-18 19:35 33.645372 -117.317514 220 7986ft 189kts
22-Apr-18 19:36 33.603452 -117.360612 220 7988ft 203kts
22-Apr-18 19:37 33.564806 -117.407816 265 8002ft 201kts
22-Apr-18 19:38 33.573987 -117.473153 280 8012ft 200kts
22-Apr-18 19:39 33.584196 -117.538712 280 8011ft 201kts
22-Apr-18 19:40 33.594385 -117.604045 280 8013ft 201kts
22-Apr-18 19:41 33.604325 -117.667708 280 7959ft 204kts
22-Apr-18 19:42 33.616540 -117.732282 293 7919ft 196kts
22-Apr-18 19:43 33.632476 -117.779854 291 6975ft 199kts
22-Apr-18 19:44 33.651923 -117.838749 291 5848ft 195kts
22-Apr-18 19:45 33.688355 -117.871186 1 5079ft 174kts
22-Apr-18 19:46 33.730432 -117.869729 1 5099ft 163kts
22-Apr-18 19:47 33.781531 -117.867897 1 5110ft 209kts
22-Apr-18 19:48 33.834608 -117.843565 31 5057ft 208kts
22-Apr-18 19:49 33.882953 -117.804798 59 5041ft 212kts
22-Apr-18 19:50 33.864473 -117.754158 186 4070ft 210kts
22-Apr-18 19:51 33.811006 -117.774078 210 3165ft 195kts
22-Apr-18 19:52 33.758653 -117.816753 207 1903ft 189kts
22-Apr-18 19:53 33.720911 -117.840513 207 1138ft 161kts
22-Apr-18 19:54 33.689966 -117.859749 208 286ft 95kts
22-Apr-18 19:55 33.676068 -117.869988 311 59ft 13kts
22-Apr-18 19:56 33.676099 -117.870603 178 59ft 0kts
22-Apr-18 19:57 33.676099 -117.870603 178 59ft 0kts
22-Apr-18 19:58 33.676099 -117.870603 178 59ft 0kts
22-Apr-18 19:59 33.676099 -117.870603 178 59ft 0kts
22-Apr-18 20:00 33.676099 -117.870603 178 59ft 0kts
22-Apr-18 20:01 33.676099 -117.870603 178 59ft 0kts
22-Apr-18 20:02 33.676099 -117.870603 178 59ft 0kts
22-Apr-18 20:03 33.676099 -117.870603 178 59ft 0kts
22-Apr-18 20:04 33.676099 -117.870603 178 59ft 0kts
22-Apr-18 20:05 33.676099 -117.870603 178 59ft 0kts
22-Apr-18 20:06 33.676099 -117.870603 178 59ft 0kts
22-Apr-18 20:07 33.676099 -117.870603 178 59ft 0kts
22-Apr-18 20:08 33.676099 -117.870603 178 59ft 0kts
22-Apr-18 20:09 33.676099 -117.870603 178 59ft 0kts

Navigation Log

Ident Type
Flight plan parsing failed, navigation log unavailable